sensor_id;sensor_type;location;lat;lon;timestamp;P1;durP1;ratioP1;P2;durP2;ratioP2
72205;SDS011;60111;48.286;7.812;2022-10-17T00:00:13;5.00;;;2.20;;
72205;SDS011;60111;48.286;7.812;2022-10-17T00:02:50;4.92;;;2.30;;
72205;SDS011;60111;48.286;7.812;2022-10-17T00:05:20;8.98;;;2.75;;
72205;SDS011;60111;48.286;7.812;2022-10-17T00:07:54;5.70;;;2.67;;
72205;SDS011;60111;48.286;7.812;2022-10-17T00:10:30;9.48;;;2.83;;
72205;SDS011;60111;48.286;7.812;2022-10-17T00:13:03;2.80;;;2.10;;
72205;SDS011;60111;48.286;7.812;2022-10-17T00:15:36;4.83;;;2.77;;
72205;SDS011;60111;48.286;7.812;2022-10-17T00:18:09;11.57;;;2.87;;
72205;SDS011;60111;48.286;7.812;2022-10-17T00:20:41;6.30;;;2.70;;
72205;SDS011;60111;48.286;7.812;2022-10-17T00:23:14;3.75;;;2.62;;
72205;SDS011;60111;48.286;7.812;2022-10-17T00:25:56;6.20;;;2.55;;
72205;SDS011;60111;48.286;7.812;2022-10-17T00:28:35;13.33;;;3.23;;
72205;SDS011;60111;48.286;7.812;2022-10-17T00:31:07;3.90;;;2.72;;
72205;SDS011;60111;48.286;7.812;2022-10-17T00:33:45;4.53;;;2.65;;
72205;SDS011;60111;48.286;7.812;2022-10-17T00:36:25;3.83;;;2.85;;
72205;SDS011;60111;48.286;7.812;2022-10-17T00:38:56;5.03;;;2.95;;
72205;SDS011;60111;48.286;7.812;2022-10-17T00:41:30;9.48;;;3.42;;
72205;SDS011;60111;48.286;7.812;2022-10-17T00:44:05;8.83;;;2.92;;
72205;SDS011;60111;48.286;7.812;2022-10-17T00:46:39;7.00;;;3.10;;
72205;SDS011;60111;48.286;7.812;2022-10-17T00:49:12;3.47;;;2.57;;
72205;SDS011;60111;48.286;7.812;2022-10-17T00:51:48;8.60;;;3.00;;
72205;SDS011;60111;48.286;7.812;2022-10-17T00:54:28;6.37;;;3.17;;
72205;SDS011;60111;48.286;7.812;2022-10-17T00:57:05;6.33;;;2.98;;
72205;SDS011;60111;48.286;7.812;2022-10-17T00:59:38;5.42;;;2.92;;
72205;SDS011;60111;48.286;7.812;2022-10-17T01:02:14;8.83;;;3.20;;
72205;SDS011;60111;48.286;7.812;2022-10-17T01:04:49;6.17;;;2.70;;
72205;SDS011;60111;48.286;7.812;2022-10-17T01:07:25;11.05;;;3.15;;
72205;SDS011;60111;48.286;7.812;2022-10-17T01:09:59;6.97;;;2.85;;
72205;SDS011;60111;48.286;7.812;2022-10-17T01:12:37;8.00;;;3.27;;
72205;SDS011;60111;48.286;7.812;2022-10-17T01:15:37;9.85;;;3.65;;
72205;SDS011;60111;48.286;7.812;2022-10-17T01:24:11;6.65;;;3.22;;
72205;SDS011;60111;48.286;7.812;2022-10-17T01:35:30;5.50;;;2.90;;
72205;SDS011;60111;48.286;7.812;2022-10-17T01:38:10;7.90;;;3.55;;
72205;SDS011;60111;48.286;7.812;2022-10-17T01:40:48;11.03;;;3.58;;
72205;SDS011;60111;48.286;7.812;2022-10-17T01:43:24;7.50;;;3.25;;
72205;SDS011;60111;48.286;7.812;2022-10-17T01:46:02;7.80;;;3.20;;
72205;SDS011;60111;48.286;7.812;2022-10-17T01:48:37;9.85;;;3.52;;
72205;SDS011;60111;48.286;7.812;2022-10-17T01:51:16;6.78;;;3.22;;
72205;SDS011;60111;48.286;7.812;2022-10-17T01:53:57;12.03;;;3.27;;
72205;SDS011;60111;48.286;7.812;2022-10-17T01:56:27;3.90;;;2.80;;
72205;SDS011;60111;48.286;7.812;2022-10-17T01:59:09;5.30;;;2.65;;
72205;SDS011;60111;48.286;7.812;2022-10-17T02:01:42;10.85;;;2.92;;
72205;SDS011;60111;48.286;7.812;2022-10-17T02:04:16;8.93;;;2.77;;
72205;SDS011;60111;48.286;7.812;2022-10-17T02:06:49;5.35;;;2.95;;
72205;SDS011;60111;48.286;7.812;2022-10-17T02:09:23;3.15;;;2.65;;
72205;SDS011;60111;48.286;7.812;2022-10-17T02:23:32;4.50;;;2.90;;
72205;SDS011;60111;48.286;7.812;2022-10-17T02:31:48;4.75;;;3.05;;
72205;SDS011;60111;48.286;7.812;2022-10-17T02:37:08;8.23;;;3.27;;
72205;SDS011;60111;48.286;7.812;2022-10-17T02:39:43;5.10;;;2.70;;
72205;SDS011;60111;48.286;7.812;2022-10-17T02:42:17;8.40;;;3.17;;
72205;SDS011;60111;48.286;7.812;2022-10-17T02:44:52;5.17;;;3.07;;
72205;SDS011;60111;48.286;7.812;2022-10-17T02:47:30;11.05;;;3.98;;
72205;SDS011;60111;48.286;7.812;2022-10-17T02:50:23;9.48;;;3.52;;
72205;SDS011;60111;48.286;7.812;2022-10-17T02:52:58;8.20;;;3.62;;
72205;SDS011;60111;48.286;7.812;2022-10-17T02:55:35;6.35;;;3.08;;
72205;SDS011;60111;48.286;7.812;2022-10-17T02:58:15;10.75;;;3.50;;
72205;SDS011;60111;48.286;7.812;2022-10-17T03:00:44;8.80;;;3.90;;
72205;SDS011;60111;48.286;7.812;2022-10-17T03:03:22;10.18;;;3.62;;
72205;SDS011;60111;48.286;7.812;2022-10-17T03:05:56;8.10;;;3.40;;
72205;SDS011;60111;48.286;7.812;2022-10-17T03:08:29;6.33;;;3.95;;
72205;SDS011;60111;48.286;7.812;2022-10-17T03:11:01;7.80;;;3.52;;
72205;SDS011;60111;48.286;7.812;2022-10-17T03:13:34;5.23;;;3.03;;
72205;SDS011;60111;48.286;7.812;2022-10-17T03:16:07;3.60;;;3.30;;
72205;SDS011;60111;48.286;7.812;2022-10-17T03:18:39;9.28;;;3.45;;
72205;SDS011;60111;48.286;7.812;2022-10-17T03:21:12;8.95;;;3.52;;
72205;SDS011;60111;48.286;7.812;2022-10-17T03:23:44;7.15;;;3.47;;
72205;SDS011;60111;48.286;7.812;2022-10-17T03:26:17;4.30;;;3.02;;
72205;SDS011;60111;48.286;7.812;2022-10-17T03:28:50;7.55;;;3.47;;
72205;SDS011;60111;48.286;7.812;2022-10-17T03:31:22;7.15;;;3.40;;
72205;SDS011;60111;48.286;7.812;2022-10-17T03:33:55;5.28;;;3.22;;
72205;SDS011;60111;48.286;7.812;2022-10-17T03:36:27;15.55;;;3.58;;
72205;SDS011;60111;48.286;7.812;2022-10-17T03:39:00;4.62;;;2.92;;
72205;SDS011;60111;48.286;7.812;2022-10-17T03:41:33;4.22;;;3.15;;
72205;SDS011;60111;48.286;7.812;2022-10-17T03:44:06;6.28;;;3.10;;
72205;SDS011;60111;48.286;7.812;2022-10-17T03:46:38;10.60;;;3.65;;
72205;SDS011;60111;48.286;7.812;2022-10-17T03:49:11;5.20;;;2.75;;
72205;SDS011;60111;48.286;7.812;2022-10-17T03:51:44;4.40;;;2.70;;
72205;SDS011;60111;48.286;7.812;2022-10-17T03:54:16;8.40;;;3.27;;
72205;SDS011;60111;48.286;7.812;2022-10-17T03:56:49;6.35;;;3.72;;
72205;SDS011;60111;48.286;7.812;2022-10-17T03:59:24;6.78;;;3.15;;
72205;SDS011;60111;48.286;7.812;2022-10-17T04:01:56;8.20;;;3.40;;
72205;SDS011;60111;48.286;7.812;2022-10-17T04:04:29;6.60;;;3.22;;
72205;SDS011;60111;48.286;7.812;2022-10-17T04:07:02;6.08;;;3.30;;
72205;SDS011;60111;48.286;7.812;2022-10-17T04:09:34;4.20;;;3.30;;
72205;SDS011;60111;48.286;7.812;2022-10-17T04:12:09;3.47;;;3.17;;
72205;SDS011;60111;48.286;7.812;2022-10-17T04:14:41;7.58;;;3.40;;
72205;SDS011;60111;48.286;7.812;2022-10-17T04:17:13;7.08;;;3.58;;
72205;SDS011;60111;48.286;7.812;2022-10-17T04:19:47;5.77;;;3.30;;
72205;SDS011;60111;48.286;7.812;2022-10-17T04:22:20;5.00;;;3.07;;
72205;SDS011;60111;48.286;7.812;2022-10-17T04:24:53;7.42;;;4.25;;
72205;SDS011;60111;48.286;7.812;2022-10-17T04:27:25;8.15;;;3.90;;
72205;SDS011;60111;48.286;7.812;2022-10-17T04:29:58;7.33;;;3.30;;
72205;SDS011;60111;48.286;7.812;2022-10-17T04:32:31;7.85;;;3.67;;
72205;SDS011;60111;48.286;7.812;2022-10-17T04:35:05;6.75;;;3.15;;
72205;SDS011;60111;48.286;7.812;2022-10-17T04:37:38;5.00;;;2.80;;
72205;SDS011;60111;48.286;7.812;2022-10-17T04:40:10;11.83;;;3.67;;
72205;SDS011;60111;48.286;7.812;2022-10-17T04:42:43;11.00;;;4.10;;
72205;SDS011;60111;48.286;7.812;2022-10-17T04:45:16;9.90;;;3.60;;
72205;SDS011;60111;48.286;7.812;2022-10-17T04:47:48;7.70;;;3.40;;
72205;SDS011;60111;48.286;7.812;2022-10-17T04:50:22;9.20;;;3.37;;
72205;SDS011;60111;48.286;7.812;2022-10-17T04:52:55;11.15;;;3.65;;
72205;SDS011;60111;48.286;7.812;2022-10-17T04:55:27;10.08;;;9.25;;
72205;SDS011;60111;48.286;7.812;2022-10-17T04:58:00;20.55;;;4.20;;
72205;SDS011;60111;48.286;7.812;2022-10-17T05:00:35;7.33;;;3.40;;
72205;SDS011;60111;48.286;7.812;2022-10-17T05:03:09;6.33;;;3.70;;
72205;SDS011;60111;48.286;7.812;2022-10-17T05:05:42;5.67;;;3.47;;
72205;SDS011;60111;48.286;7.812;2022-10-17T05:08:15;9.60;;;3.40;;
72205;SDS011;60111;48.286;7.812;2022-10-17T05:10:48;4.80;;;3.50;;
72205;SDS011;60111;48.286;7.812;2022-10-17T05:13:20;15.33;;;3.77;;
72205;SDS011;60111;48.286;7.812;2022-10-17T05:16:03;5.10;;;3.55;;
72205;SDS011;60111;48.286;7.812;2022-10-17T05:18:31;12.33;;;3.60;;
72205;SDS011;60111;48.286;7.812;2022-10-17T05:21:03;5.22;;;3.00;;
72205;SDS011;60111;48.286;7.812;2022-10-17T05:23:36;4.15;;;3.25;;
72205;SDS011;60111;48.286;7.812;2022-10-17T05:26:09;4.80;;;3.67;;
72205;SDS011;60111;48.286;7.812;2022-10-17T05:28:42;9.80;;;4.17;;
72205;SDS011;60111;48.286;7.812;2022-10-17T05:31:15;10.82;;;4.58;;
72205;SDS011;60111;48.286;7.812;2022-10-17T05:33:48;8.43;;;4.60;;
72205;SDS011;60111;48.286;7.812;2022-10-17T05:36:20;10.60;;;4.20;;
72205;SDS011;60111;48.286;7.812;2022-10-17T05:38:53;7.10;;;4.08;;
72205;SDS011;60111;48.286;7.812;2022-10-17T05:41:26;9.38;;;3.95;;
72205;SDS011;60111;48.286;7.812;2022-10-17T05:43:58;6.42;;;3.77;;
72205;SDS011;60111;48.286;7.812;2022-10-17T05:46:31;7.75;;;3.60;;
72205;SDS011;60111;48.286;7.812;2022-10-17T05:49:04;5.53;;;3.52;;
72205;SDS011;60111;48.286;7.812;2022-10-17T05:51:37;6.55;;;3.72;;
72205;SDS011;60111;48.286;7.812;2022-10-17T05:54:09;5.83;;;3.37;;
72205;SDS011;60111;48.286;7.812;2022-10-17T05:56:42;11.25;;;3.72;;
72205;SDS011;60111;48.286;7.812;2022-10-17T05:59:15;6.03;;;3.37;;
72205;SDS011;60111;48.286;7.812;2022-10-17T06:01:47;12.13;;;3.40;;
72205;SDS011;60111;48.286;7.812;2022-10-17T06:04:20;11.95;;;3.87;;
72205;SDS011;60111;48.286;7.812;2022-10-17T06:06:54;11.25;;;3.72;;
72205;SDS011;60111;48.286;7.812;2022-10-17T06:09:27;6.60;;;3.55;;
72205;SDS011;60111;48.286;7.812;2022-10-17T06:11:59;10.45;;;3.77;;
72205;SDS011;60111;48.286;7.812;2022-10-17T06:14:32;9.25;;;3.50;;
72205;SDS011;60111;48.286;7.812;2022-10-17T06:17:05;15.38;;;3.85;;
72205;SDS011;60111;48.286;7.812;2022-10-17T06:19:40;8.50;;;3.53;;
72205;SDS011;60111;48.286;7.812;2022-10-17T06:24:44;11.00;;;3.20;;
72205;SDS011;60111;48.286;7.812;2022-10-17T06:27:16;14.25;;;3.37;;
72205;SDS011;60111;48.286;7.812;2022-10-17T06:29:49;12.30;;;3.17;;
72205;SDS011;60111;48.286;7.812;2022-10-17T06:32:21;9.23;;;3.30;;
72205;SDS011;60111;48.286;7.812;2022-10-17T06:34:54;9.60;;;3.50;;
72205;SDS011;60111;48.286;7.812;2022-10-17T06:37:29;11.25;;;3.60;;
72205;SDS011;60111;48.286;7.812;2022-10-17T06:40:04;9.15;;;3.40;;
72205;SDS011;60111;48.286;7.812;2022-10-17T06:42:38;6.92;;;3.25;;
72205;SDS011;60111;48.286;7.812;2022-10-17T06:45:11;8.53;;;3.80;;
72205;SDS011;60111;48.286;7.812;2022-10-17T06:47:44;11.85;;;3.42;;
72205;SDS011;60111;48.286;7.812;2022-10-17T06:50:16;8.10;;;3.58;;
72205;SDS011;60111;48.286;7.812;2022-10-17T06:52:50;8.03;;;3.77;;
72205;SDS011;60111;48.286;7.812;2022-10-17T06:55:23;7.43;;;2.97;;
72205;SDS011;60111;48.286;7.812;2022-10-17T06:57:55;6.58;;;3.10;;
72205;SDS011;60111;48.286;7.812;2022-10-17T07:00:28;11.45;;;3.52;;
72205;SDS011;60111;48.286;7.812;2022-10-17T07:03:00;7.33;;;3.40;;
72205;SDS011;60111;48.286;7.812;2022-10-17T07:05:34;8.63;;;3.85;;
72205;SDS011;60111;48.286;7.812;2022-10-17T07:08:06;7.70;;;3.37;;
72205;SDS011;60111;48.286;7.812;2022-10-17T07:10:39;7.85;;;3.33;;
72205;SDS011;60111;48.286;7.812;2022-10-17T07:13:11;8.83;;;3.67;;
72205;SDS011;60111;48.286;7.812;2022-10-17T07:15:44;7.87;;;3.70;;
72205;SDS011;60111;48.286;7.812;2022-10-17T07:18:17;5.80;;;3.40;;
72205;SDS011;60111;48.286;7.812;2022-10-17T07:20:53;12.37;;;3.25;;
72205;SDS011;60111;48.286;7.812;2022-10-17T07:23:31;7.85;;;3.10;;
72205;SDS011;60111;48.286;7.812;2022-10-17T07:26:00;4.05;;;3.45;;
72205;SDS011;60111;48.286;7.812;2022-10-17T07:28:37;7.97;;;3.65;;
72205;SDS011;60111;48.286;7.812;2022-10-17T07:31:13;9.48;;;3.25;;
72205;SDS011;60111;48.286;7.812;2022-10-17T07:33:47;5.17;;;3.40;;
72205;SDS011;60111;48.286;7.812;2022-10-17T07:36:20;6.70;;;3.45;;
72205;SDS011;60111;48.286;7.812;2022-10-17T07:38:53;7.35;;;3.25;;
72205;SDS011;60111;48.286;7.812;2022-10-17T07:41:26;12.78;;;3.50;;
72205;SDS011;60111;48.286;7.812;2022-10-17T07:43:58;11.75;;;2.98;;
72205;SDS011;60111;48.286;7.812;2022-10-17T07:46:31;5.30;;;2.95;;
72205;SDS011;60111;48.286;7.812;2022-10-17T07:49:04;8.05;;;3.27;;
72205;SDS011;60111;48.286;7.812;2022-10-17T07:51:36;11.30;;;3.45;;
72205;SDS011;60111;48.286;7.812;2022-10-17T07:54:12;7.05;;;3.40;;
72205;SDS011;60111;48.286;7.812;2022-10-17T07:56:45;8.53;;;3.30;;
72205;SDS011;60111;48.286;7.812;2022-10-17T07:59:19;10.50;;;3.40;;
72205;SDS011;60111;48.286;7.812;2022-10-17T08:01:57;11.68;;;4.03;;
72205;SDS011;60111;48.286;7.812;2022-10-17T08:07:18;8.20;;;3.58;;
72205;SDS011;60111;48.286;7.812;2022-10-17T08:09:51;10.10;;;3.73;;
72205;SDS011;60111;48.286;7.812;2022-10-17T08:12:23;10.75;;;3.62;;
72205;SDS011;60111;48.286;7.812;2022-10-17T08:14:56;9.38;;;3.90;;
72205;SDS011;60111;48.286;7.812;2022-10-17T08:17:28;14.85;;;4.15;;
72205;SDS011;60111;48.286;7.812;2022-10-17T08:20:02;8.18;;;3.20;;
72205;SDS011;60111;48.286;7.812;2022-10-17T08:22:36;7.23;;;3.70;;
72205;SDS011;60111;48.286;7.812;2022-10-17T08:25:09;6.20;;;3.00;;
72205;SDS011;60111;48.286;7.812;2022-10-17T08:27:41;8.38;;;3.50;;
72205;SDS011;60111;48.286;7.812;2022-10-17T08:30:14;5.30;;;3.30;;
72205;SDS011;60111;48.286;7.812;2022-10-17T08:32:47;8.93;;;3.87;;
72205;SDS011;60111;48.286;7.812;2022-10-17T08:35:19;10.15;;;3.50;;
72205;SDS011;60111;48.286;7.812;2022-10-17T08:37:53;7.23;;;3.50;;
72205;SDS011;60111;48.286;7.812;2022-10-17T08:40:26;11.00;;;3.50;;
72205;SDS011;60111;48.286;7.812;2022-10-17T08:45:59;7.15;;;3.33;;
72205;SDS011;60111;48.286;7.812;2022-10-17T08:48:40;12.58;;;3.83;;
72205;SDS011;60111;48.286;7.812;2022-10-17T08:51:20;7.15;;;3.42;;
72205;SDS011;60111;48.286;7.812;2022-10-17T08:53:52;6.03;;;3.10;;
72205;SDS011;60111;48.286;7.812;2022-10-17T08:56:29;8.03;;;3.40;;
72205;SDS011;60111;48.286;7.812;2022-10-17T08:59:03;18.17;;;3.50;;
72205;SDS011;60111;48.286;7.812;2022-10-17T09:02:17;11.28;;;3.22;;
72205;SDS011;60111;48.286;7.812;2022-10-17T09:10:11;15.10;;;2.85;;
72205;SDS011;60111;48.286;7.812;2022-10-17T09:12:55;11.97;;;3.20;;
72205;SDS011;60111;48.286;7.812;2022-10-17T09:18:34;8.63;;;3.37;;
72205;SDS011;60111;48.286;7.812;2022-10-17T09:21:31;14.18;;;3.50;;
72205;SDS011;60111;48.286;7.812;2022-10-17T09:24:17;11.10;;;3.27;;
72205;SDS011;60111;48.286;7.812;2022-10-17T09:26:50;8.13;;;3.40;;
72205;SDS011;60111;48.286;7.812;2022-10-17T09:29:25;6.42;;;3.33;;
72205;SDS011;60111;48.286;7.812;2022-10-17T09:32:03;8.18;;;3.33;;
72205;SDS011;60111;48.286;7.812;2022-10-17T09:34:44;10.93;;;3.10;;
72205;SDS011;60111;48.286;7.812;2022-10-17T09:37:17;8.60;;;3.00;;
72205;SDS011;60111;48.286;7.812;2022-10-17T09:39:50;6.95;;;2.90;;
72205;SDS011;60111;48.286;7.812;2022-10-17T09:42:23;7.15;;;2.60;;
72205;SDS011;60111;48.286;7.812;2022-10-17T09:45:18;10.15;;;3.27;;
72205;SDS011;60111;48.286;7.812;2022-10-17T09:48:10;6.80;;;2.80;;
72205;SDS011;60111;48.286;7.812;2022-10-17T09:50:44;3.83;;;2.80;;
72205;SDS011;60111;48.286;7.812;2022-10-17T09:53:20;6.40;;;2.83;;
72205;SDS011;60111;48.286;7.812;2022-10-17T09:55:55;4.67;;;2.83;;
72205;SDS011;60111;48.286;7.812;2022-10-17T09:58:39;5.33;;;2.70;;
72205;SDS011;60111;48.286;7.812;2022-10-17T10:01:27;7.83;;;3.20;;
72205;SDS011;60111;48.286;7.812;2022-10-17T10:07:05;6.60;;;2.60;;
72205;SDS011;60111;48.286;7.812;2022-10-17T10:09:31;8.57;;;3.20;;
72205;SDS011;60111;48.286;7.812;2022-10-17T10:12:13;3.15;;;2.58;;
72205;SDS011;60111;48.286;7.812;2022-10-17T10:14:41;6.65;;;2.55;;
72205;SDS011;60111;48.286;7.812;2022-10-17T10:20:41;16.52;;;2.72;;
72205;SDS011;60111;48.286;7.812;2022-10-17T10:23:16;4.67;;;2.92;;
72205;SDS011;60111;48.286;7.812;2022-10-17T10:25:55;6.60;;;3.17;;
72205;SDS011;60111;48.286;7.812;2022-10-17T10:28:31;9.58;;;3.08;;
72205;SDS011;60111;48.286;7.812;2022-10-17T10:31:06;5.65;;;2.27;;
72205;SDS011;60111;48.286;7.812;2022-10-17T10:33:40;4.15;;;2.80;;
72205;SDS011;60111;48.286;7.812;2022-10-17T10:36:14;4.20;;;2.50;;
72205;SDS011;60111;48.286;7.812;2022-10-17T10:38:53;11.33;;;2.60;;
72205;SDS011;60111;48.286;7.812;2022-10-17T10:41:28;5.15;;;2.95;;
72205;SDS011;60111;48.286;7.812;2022-10-17T10:44:03;7.85;;;2.70;;
72205;SDS011;60111;48.286;7.812;2022-10-17T10:46:36;5.63;;;2.80;;
72205;SDS011;60111;48.286;7.812;2022-10-17T10:49:26;5.55;;;2.40;;
72205;SDS011;60111;48.286;7.812;2022-10-17T10:52:00;5.93;;;2.83;;
72205;SDS011;60111;48.286;7.812;2022-10-17T10:54:36;5.85;;;2.75;;
72205;SDS011;60111;48.286;7.812;2022-10-17T10:57:12;9.08;;;2.87;;
72205;SDS011;60111;48.286;7.812;2022-10-17T10:59:57;5.30;;;2.55;;
72205;SDS011;60111;48.286;7.812;2022-10-17T11:06:04;6.20;;;2.67;;
72205;SDS011;60111;48.286;7.812;2022-10-17T11:07:57;7.62;;;2.50;;
72205;SDS011;60111;48.286;7.812;2022-10-17T11:13:25;10.60;;;2.53;;
72205;SDS011;60111;48.286;7.812;2022-10-17T11:21:19;3.95;;;1.80;;
72205;SDS011;60111;48.286;7.812;2022-10-17T11:24:06;2.27;;;1.80;;
72205;SDS011;60111;48.286;7.812;2022-10-17T11:26:46;7.55;;;2.02;;
72205;SDS011;60111;48.286;7.812;2022-10-17T11:29:25;6.15;;;1.90;;
72205;SDS011;60111;48.286;7.812;2022-10-17T11:32:06;4.67;;;1.72;;
72205;SDS011;60111;48.286;7.812;2022-10-17T11:37:24;7.95;;;1.90;;
72205;SDS011;60111;48.286;7.812;2022-10-17T11:40:01;3.75;;;1.77;;
72205;SDS011;60111;48.286;7.812;2022-10-17T11:42:59;6.93;;;1.67;;
72205;SDS011;60111;48.286;7.812;2022-10-17T11:45:38;2.75;;;1.57;;
72205;SDS011;60111;48.286;7.812;2022-10-17T11:48:14;10.98;;;1.60;;
72205;SDS011;60111;48.286;7.812;2022-10-17T11:51:02;5.63;;;2.10;;
72205;SDS011;60111;48.286;7.812;2022-10-17T11:53:44;3.12;;;1.75;;
72205;SDS011;60111;48.286;7.812;2022-10-17T11:56:14;4.45;;;1.82;;
72205;SDS011;60111;48.286;7.812;2022-10-17T11:58:54;3.30;;;1.90;;
72205;SDS011;60111;48.286;7.812;2022-10-17T12:04:23;7.08;;;1.70;;
72205;SDS011;60111;48.286;7.812;2022-10-17T12:07:17;7.53;;;2.10;;
72205;SDS011;60111;48.286;7.812;2022-10-17T12:09:53;6.50;;;1.80;;
72205;SDS011;60111;48.286;7.812;2022-10-17T12:12:31;4.37;;;1.70;;
72205;SDS011;60111;48.286;7.812;2022-10-17T12:17:59;4.95;;;1.90;;
72205;SDS011;60111;48.286;7.812;2022-10-17T12:20:38;3.52;;;1.70;;
72205;SDS011;60111;48.286;7.812;2022-10-17T12:25:53;3.07;;;1.60;;
72205;SDS011;60111;48.286;7.812;2022-10-17T12:33:52;3.77;;;1.70;;
72205;SDS011;60111;48.286;7.812;2022-10-17T12:49:41;5.20;;;2.07;;
72205;SDS011;60111;48.286;7.812;2022-10-17T12:55:22;7.40;;;1.85;;
72205;SDS011;60111;48.286;7.812;2022-10-17T12:58:05;6.60;;;1.67;;
72205;SDS011;60111;48.286;7.812;2022-10-17T13:03:20;4.15;;;1.57;;
72205;SDS011;60111;48.286;7.812;2022-10-17T13:05:54;4.28;;;1.82;;
72205;SDS011;60111;48.286;7.812;2022-10-17T13:08:42;5.40;;;1.57;;
72205;SDS011;60111;48.286;7.812;2022-10-17T13:11:10;4.72;;;2.05;;
72205;SDS011;60111;48.286;7.812;2022-10-17T13:13:49;5.17;;;1.72;;
72205;SDS011;60111;48.286;7.812;2022-10-17T13:16:34;2.50;;;1.37;;
72205;SDS011;60111;48.286;7.812;2022-10-17T13:19:14;4.45;;;1.60;;
72205;SDS011;60111;48.286;7.812;2022-10-17T13:21:58;3.65;;;1.95;;
72205;SDS011;60111;48.286;7.812;2022-10-17T13:24:33;7.28;;;2.05;;
72205;SDS011;60111;48.286;7.812;2022-10-17T13:27:24;3.43;;;1.50;;
72205;SDS011;60111;48.286;7.812;2022-10-17T13:30:01;2.67;;;1.57;;
72205;SDS011;60111;48.286;7.812;2022-10-17T13:32:37;6.47;;;1.70;;
72205;SDS011;60111;48.286;7.812;2022-10-17T13:35:12;7.37;;;1.93;;
72205;SDS011;60111;48.286;7.812;2022-10-17T13:37:47;5.65;;;1.80;;
72205;SDS011;60111;48.286;7.812;2022-10-17T13:40:25;6.83;;;1.92;;
72205;SDS011;60111;48.286;7.812;2022-10-17T13:43:00;3.67;;;1.65;;
72205;SDS011;60111;48.286;7.812;2022-10-17T13:45:36;3.10;;;2.08;;
72205;SDS011;60111;48.286;7.812;2022-10-17T13:48:16;2.60;;;1.82;;
72205;SDS011;60111;48.286;7.812;2022-10-17T13:50:51;3.90;;;1.70;;
72205;SDS011;60111;48.286;7.812;2022-10-17T13:53:33;3.40;;;1.57;;
72205;SDS011;60111;48.286;7.812;2022-10-17T13:56:16;2.73;;;1.60;;
72205;SDS011;60111;48.286;7.812;2022-10-17T13:58:52;3.80;;;1.42;;
72205;SDS011;60111;48.286;7.812;2022-10-17T14:01:27;7.10;;;1.87;;
72205;SDS011;60111;48.286;7.812;2022-10-17T14:06:32;7.85;;;1.52;;
72205;SDS011;60111;48.286;7.812;2022-10-17T14:09:15;4.00;;;1.47;;
72205;SDS011;60111;48.286;7.812;2022-10-17T14:12:02;3.50;;;1.52;;
72205;SDS011;60111;48.286;7.812;2022-10-17T14:14:36;4.37;;;1.30;;
72205;SDS011;60111;48.286;7.812;2022-10-17T14:17:16;4.22;;;1.60;;
72205;SDS011;60111;48.286;7.812;2022-10-17T14:19:49;3.70;;;1.95;;
72205;SDS011;60111;48.286;7.812;2022-10-17T14:24:59;8.55;;;1.90;;
72205;SDS011;60111;48.286;7.812;2022-10-17T14:27:36;1.50;;;1.30;;
72205;SDS011;60111;48.286;7.812;2022-10-17T14:33:01;3.42;;;1.67;;
72205;SDS011;60111;48.286;7.812;2022-10-17T14:35:35;4.37;;;1.45;;
72205;SDS011;60111;48.286;7.812;2022-10-17T14:38:11;5.20;;;1.98;;
72205;SDS011;60111;48.286;7.812;2022-10-17T14:40:54;2.22;;;1.47;;
72205;SDS011;60111;48.286;7.812;2022-10-17T14:43:34;5.92;;;1.65;;
72205;SDS011;60111;48.286;7.812;2022-10-17T14:46:10;5.35;;;1.35;;
72205;SDS011;60111;48.286;7.812;2022-10-17T14:48:50;3.25;;;1.50;;
72205;SDS011;60111;48.286;7.812;2022-10-17T14:51:26;4.70;;;1.50;;
72205;SDS011;60111;48.286;7.812;2022-10-17T14:56:40;4.87;;;1.92;;
72205;SDS011;60111;48.286;7.812;2022-10-17T14:59:13;4.23;;;1.87;;
72205;SDS011;60111;48.286;7.812;2022-10-17T15:01:48;4.62;;;1.77;;
72205;SDS011;60111;48.286;7.812;2022-10-17T15:04:21;3.10;;;1.60;;
72205;SDS011;60111;48.286;7.812;2022-10-17T15:06:53;3.80;;;2.00;;
72205;SDS011;60111;48.286;7.812;2022-10-17T15:09:26;5.37;;;1.85;;
72205;SDS011;60111;48.286;7.812;2022-10-17T15:12:00;6.97;;;1.77;;
72205;SDS011;60111;48.286;7.812;2022-10-17T15:14:34;7.20;;;1.70;;
72205;SDS011;60111;48.286;7.812;2022-10-17T15:17:11;3.60;;;1.62;;
72205;SDS011;60111;48.286;7.812;2022-10-17T15:19:52;5.50;;;1.70;;
72205;SDS011;60111;48.286;7.812;2022-10-17T15:22:25;5.00;;;1.72;;
72205;SDS011;60111;48.286;7.812;2022-10-17T15:24:57;5.85;;;1.80;;
72205;SDS011;60111;48.286;7.812;2022-10-17T15:27:31;7.00;;;1.95;;
72205;SDS011;60111;48.286;7.812;2022-10-17T15:30:08;5.55;;;1.42;;
72205;SDS011;60111;48.286;7.812;2022-10-17T15:32:40;2.08;;;1.52;;
72205;SDS011;60111;48.286;7.812;2022-10-17T15:35:13;3.63;;;1.40;;
72205;SDS011;60111;48.286;7.812;2022-10-17T15:37:46;2.33;;;1.77;;
72205;SDS011;60111;48.286;7.812;2022-10-17T15:40:26;2.63;;;1.50;;
72205;SDS011;60111;48.286;7.812;2022-10-17T15:43:01;3.33;;;1.60;;
72205;SDS011;60111;48.286;7.812;2022-10-17T15:45:42;2.72;;;1.52;;
72205;SDS011;60111;48.286;7.812;2022-10-17T15:48:22;4.05;;;1.52;;
72205;SDS011;60111;48.286;7.812;2022-10-17T15:50:52;2.25;;;1.40;;
72205;SDS011;60111;48.286;7.812;2022-10-17T15:53:25;3.33;;;1.57;;
72205;SDS011;60111;48.286;7.812;2022-10-17T15:55:58;7.17;;;1.87;;
72205;SDS011;60111;48.286;7.812;2022-10-17T15:58:33;5.33;;;1.73;;
72205;SDS011;60111;48.286;7.812;2022-10-17T16:01:10;3.27;;;1.55;;
72205;SDS011;60111;48.286;7.812;2022-10-17T16:03:44;4.45;;;1.77;;
72205;SDS011;60111;48.286;7.812;2022-10-17T16:06:18;2.27;;;1.90;;
72205;SDS011;60111;48.286;7.812;2022-10-17T16:08:52;5.85;;;1.67;;
72205;SDS011;60111;48.286;7.812;2022-10-17T16:11:29;2.70;;;1.45;;
72205;SDS011;60111;48.286;7.812;2022-10-17T16:14:04;3.90;;;1.40;;
72205;SDS011;60111;48.286;7.812;2022-10-17T16:16:39;2.00;;;1.43;;
72205;SDS011;60111;48.286;7.812;2022-10-17T16:19:12;3.83;;;1.90;;
72205;SDS011;60111;48.286;7.812;2022-10-17T16:21:46;1.80;;;1.50;;
72205;SDS011;60111;48.286;7.812;2022-10-17T16:24:18;4.35;;;1.75;;
72205;SDS011;60111;48.286;7.812;2022-10-17T16:26:51;2.77;;;1.50;;
72205;SDS011;60111;48.286;7.812;2022-10-17T16:29:24;2.85;;;1.82;;
72205;SDS011;60111;48.286;7.812;2022-10-17T16:31:56;4.62;;;1.80;;
72205;SDS011;60111;48.286;7.812;2022-10-17T16:34:29;3.77;;;1.67;;
72205;SDS011;60111;48.286;7.812;2022-10-17T16:37:02;3.17;;;2.00;;
72205;SDS011;60111;48.286;7.812;2022-10-17T16:39:34;3.12;;;1.70;;
72205;SDS011;60111;48.286;7.812;2022-10-17T16:42:07;1.72;;;1.57;;
72205;SDS011;60111;48.286;7.812;2022-10-17T16:44:39;4.55;;;1.70;;
72205;SDS011;60111;48.286;7.812;2022-10-17T16:47:12;3.62;;;1.50;;
72205;SDS011;60111;48.286;7.812;2022-10-17T16:49:45;3.00;;;1.80;;
72205;SDS011;60111;48.286;7.812;2022-10-17T16:52:18;3.63;;;1.53;;
72205;SDS011;60111;48.286;7.812;2022-10-17T16:54:50;3.70;;;1.60;;
72205;SDS011;60111;48.286;7.812;2022-10-17T16:57:23;5.67;;;1.90;;
72205;SDS011;60111;48.286;7.812;2022-10-17T16:59:55;5.37;;;2.05;;
72205;SDS011;60111;48.286;7.812;2022-10-17T17:02:29;7.90;;;2.30;;
72205;SDS011;60111;48.286;7.812;2022-10-17T17:05:01;4.12;;;2.35;;
72205;SDS011;60111;48.286;7.812;2022-10-17T17:07:34;4.53;;;2.40;;
72205;SDS011;60111;48.286;7.812;2022-10-17T17:10:07;7.70;;;3.22;;
72205;SDS011;60111;48.286;7.812;2022-10-17T17:12:40;6.03;;;2.67;;
72205;SDS011;60111;48.286;7.812;2022-10-17T17:15:13;6.10;;;2.37;;
72205;SDS011;60111;48.286;7.812;2022-10-17T17:17:46;4.90;;;2.62;;
72205;SDS011;60111;48.286;7.812;2022-10-17T17:20:18;6.90;;;2.60;;
72205;SDS011;60111;48.286;7.812;2022-10-17T17:22:51;3.50;;;2.27;;
72205;SDS011;60111;48.286;7.812;2022-10-17T17:25:23;12.75;;;2.10;;
72205;SDS011;60111;48.286;7.812;2022-10-17T17:27:56;13.98;;;2.25;;